createdAt,value
2023-03-03T00:01:16.056Z,27.03
2023-03-03T00:03:42.900Z,31.73
2023-03-03T00:06:11.992Z,27.33
2023-03-03T00:08:39.314Z,34.50
2023-03-03T00:11:07.834Z,34.20
2023-03-03T00:13:43.875Z,25.93
2023-03-03T00:16:24.362Z,24.90
2023-03-03T00:18:52.171Z,26.38
2023-03-03T00:21:42.204Z,26.20
2023-03-03T00:24:22.480Z,24.67
2023-03-03T00:26:55.710Z,28.13
2023-03-03T00:29:30.894Z,29.70
2023-03-03T00:32:22.750Z,29.00
2023-03-03T00:34:50.674Z,28.02
2023-03-03T00:37:29.094Z,28.63
2023-03-03T00:40:14.957Z,24.93
2023-03-03T00:42:43.563Z,29.90
2023-03-03T00:45:30.093Z,26.03
2023-03-03T00:47:57.527Z,28.63
2023-03-03T00:50:34.610Z,23.43
2023-03-03T00:53:12.926Z,29.93
2023-03-03T00:55:40.641Z,24.63
2023-03-03T00:58:07.629Z,25.47
2023-03-03T01:00:41.034Z,25.20
2023-03-03T01:03:21.680Z,27.55
2023-03-03T01:05:49.789Z,29.15
2023-03-03T01:08:17.264Z,23.93
2023-03-03T01:10:51.585Z,26.97
2023-03-03T01:13:20.426Z,25.23
2023-03-03T01:15:47.130Z,26.85
2023-03-03T01:18:14.481Z,28.15
2023-03-03T01:20:41.871Z,25.08
2023-03-03T01:23:08.893Z,25.20
2023-03-03T01:25:36.206Z,28.08
2023-03-03T01:28:03.033Z,28.42
2023-03-03T01:30:29.829Z,27.60
2023-03-03T01:32:56.811Z,23.90
2023-03-03T01:35:24.023Z,27.55
2023-03-03T01:37:50.775Z,26.77
2023-03-03T01:40:25.191Z,25.70
2023-03-03T01:42:52.753Z,30.20
2023-03-03T01:45:23.996Z,26.85
2023-03-03T01:47:58.754Z,26.38
2023-03-03T01:50:45.911Z,25.25
2023-03-03T01:53:25.954Z,26.33
2023-03-03T01:55:53.466Z,25.35
2023-03-03T01:58:29.959Z,29.60
2023-03-03T02:01:08.560Z,25.23
2023-03-03T02:03:35.723Z,28.65
2023-03-03T02:06:08.538Z,31.02
2023-03-03T02:08:41.179Z,28.17
2023-03-03T02:11:09.047Z,26.17
2023-03-03T02:13:36.815Z,28.92
2023-03-03T02:16:03.862Z,27.98
2023-03-03T02:18:30.775Z,29.50
2023-03-03T02:21:03.455Z,29.60
2023-03-03T02:23:36.165Z,28.63
2023-03-03T02:26:09.419Z,25.42
2023-03-03T02:28:37.481Z,24.48
2023-03-03T02:31:13.578Z,28.88
2023-03-03T02:33:43.843Z,25.13
2023-03-03T02:36:15.849Z,25.45
2023-03-03T02:38:53.239Z,31.90
2023-03-03T02:41:29.357Z,24.90
2023-03-03T02:44:07.883Z,29.13
2023-03-03T02:46:40.293Z,29.48
2023-03-03T02:49:09.630Z,27.10
2023-03-03T02:51:37.636Z,31.23
2023-03-03T02:54:05.358Z,27.40
2023-03-03T02:56:33.236Z,29.42
2023-03-03T02:59:00.196Z,30.15
2023-03-03T03:01:28.139Z,28.75
2023-03-03T03:03:54.957Z,31.73
2023-03-03T03:06:22.897Z,29.42
2023-03-03T03:08:50.037Z,30.65
2023-03-03T03:11:16.707Z,30.55
2023-03-03T03:13:43.558Z,31.23
2023-03-03T03:16:10.435Z,32.08
2023-03-03T03:18:37.324Z,26.58
2023-03-03T03:21:11.542Z,31.00
2023-03-03T03:23:39.691Z,29.35
2023-03-03T03:26:10.165Z,31.33
2023-03-03T03:28:37.399Z,30.23
2023-03-03T03:31:05.938Z,32.88
2023-03-03T03:33:34.559Z,31.88
2023-03-03T03:36:01.720Z,31.70
2023-03-03T03:38:29.830Z,31.38
2023-03-03T03:40:56.833Z,30.08
2023-03-03T03:43:23.753Z,30.25
2023-03-03T03:45:50.540Z,37.65
2023-03-03T03:48:19.914Z,31.70
2023-03-03T03:50:49.066Z,31.77
2023-03-03T03:53:17.112Z,32.67
2023-03-03T03:55:45.082Z,33.90
2023-03-03T03:58:17.370Z,34.83
2023-03-03T04:00:48.817Z,29.95
2023-03-03T04:03:16.307Z,30.10
2023-03-03T04:05:45.026Z,35.35
2023-03-03T04:08:12.516Z,32.90
2023-03-03T04:10:40.388Z,33.33
2023-03-03T04:13:07.349Z,32.63
2023-03-03T04:15:35.382Z,32.55
2023-03-03T04:18:03.588Z,29.70
2023-03-03T04:20:30.753Z,30.15
2023-03-03T04:22:58.187Z,34.17
2023-03-03T04:25:25.759Z,30.15
2023-03-03T04:27:54.367Z,33.15
2023-03-03T04:30:22.676Z,27.42
2023-03-03T04:32:53.273Z,36.38
2023-03-03T04:35:22.662Z,33.70
2023-03-03T04:37:49.585Z,33.67
2023-03-03T04:40:18.272Z,33.10
2023-03-03T04:42:47.690Z,38.15
2023-03-03T04:45:14.472Z,32.42
2023-03-03T04:47:41.560Z,31.63
2023-03-03T04:50:09.626Z,33.47
2023-03-03T04:52:36.954Z,31.48
2023-03-03T04:55:05.210Z,35.03
2023-03-03T04:57:32.294Z,33.08
2023-03-03T04:59:59.061Z,30.35
2023-03-03T05:02:25.797Z,35.53
2023-03-03T05:04:52.830Z,35.95
2023-03-03T05:07:20.055Z,32.13
2023-03-03T05:09:46.740Z,29.40
2023-03-03T05:12:13.445Z,32.58
2023-03-03T05:14:40.392Z,34.60
2023-03-03T05:17:07.124Z,32.78
2023-03-03T05:19:34.972Z,35.03
2023-03-03T05:22:02.128Z,34.28
2023-03-03T05:24:28.916Z,35.63
2023-03-03T05:26:55.852Z,33.78
2023-03-03T05:29:22.724Z,32.28
2023-03-03T05:31:50.156Z,34.67
2023-03-03T05:34:22.464Z,32.58
2023-03-03T05:36:55.585Z,38.50
2023-03-03T05:39:25.790Z,37.60
2023-03-03T05:41:52.636Z,36.65
2023-03-03T05:44:20.731Z,36.25
2023-03-03T05:46:47.606Z,41.00
2023-03-03T05:49:14.385Z,38.53
2023-03-03T05:51:41.111Z,36.10
2023-03-03T05:54:07.730Z,34.05
2023-03-03T05:56:34.539Z,37.70
2023-03-03T05:59:01.236Z,36.63
2023-03-03T06:01:29.322Z,36.33
2023-03-03T06:03:56.050Z,34.97
2023-03-03T06:06:22.689Z,36.05
2023-03-03T06:08:50.356Z,39.78
2023-03-03T06:11:18.645Z,35.53
2023-03-03T06:13:45.998Z,36.15
2023-03-03T06:16:13.013Z,37.53
2023-03-03T06:18:39.729Z,37.40
2023-03-03T06:21:06.497Z,36.45
2023-03-03T06:23:33.483Z,38.72
2023-03-03T06:26:00.364Z,35.47
2023-03-03T06:28:27.208Z,37.75
2023-03-03T06:30:55.183Z,40.90
2023-03-03T06:33:22.620Z,34.72
2023-03-03T06:35:54.162Z,38.13
2023-03-03T06:38:21.020Z,34.78
2023-03-03T06:40:49.557Z,40.42
2023-03-03T06:43:17.792Z,37.90
2023-03-03T06:45:45.709Z,37.13
2023-03-03T06:48:12.698Z,37.58
2023-03-03T06:50:39.515Z,42.00
2023-03-03T06:53:15.908Z,47.95
2023-03-03T06:55:44.968Z,44.80
2023-03-03T06:58:16.682Z,41.67
2023-03-03T07:00:45.484Z,39.22
2023-03-03T07:03:19.912Z,39.55
2023-03-03T07:05:46.735Z,37.28
2023-03-03T07:08:18.228Z,38.15
2023-03-03T07:10:46.653Z,38.13
2023-03-03T07:13:20.944Z,35.55
2023-03-03T07:15:49.958Z,39.15
2023-03-03T07:18:41.456Z,41.72
2023-03-03T07:21:16.939Z,37.58
2023-03-03T07:23:52.839Z,39.80
2023-03-03T07:26:23.251Z,36.95
2023-03-03T07:29:02.659Z,43.50
2023-03-03T07:31:34.327Z,35.20
2023-03-03T07:34:02.133Z,37.33
2023-03-03T07:36:38.024Z,36.97
2023-03-03T07:39:25.294Z,38.75
2023-03-03T07:42:01.356Z,34.95
2023-03-03T07:44:38.189Z,35.40
2023-03-03T07:47:21.147Z,31.67
2023-03-03T07:49:49.792Z,31.83
2023-03-03T07:52:43.899Z,30.98
2023-03-03T07:55:33.475Z,35.17
2023-03-03T07:58:16.447Z,33.05
2023-03-03T08:00:47.339Z,30.58
2023-03-03T08:03:19.911Z,29.52
2023-03-03T08:05:50.866Z,31.17
2023-03-03T08:08:30.639Z,33.55
2023-03-03T08:10:59.107Z,30.02
2023-03-03T08:13:37.798Z,30.45
2023-03-03T08:16:25.589Z,31.33
2023-03-03T08:18:56.721Z,30.40
2023-03-03T08:21:24.986Z,31.20
2023-03-03T08:23:53.607Z,32.22
2023-03-03T08:26:21.915Z,30.15
2023-03-03T08:28:48.862Z,31.38
2023-03-03T08:31:28.043Z,35.53
2023-03-03T08:34:03.660Z,29.23
2023-03-03T08:36:33.674Z,31.23
2023-03-03T08:39:01.582Z,31.40
2023-03-03T08:41:28.613Z,30.73
2023-03-03T08:43:57.053Z,29.63
2023-03-03T08:46:23.857Z,35.22
2023-03-03T08:48:51.449Z,31.27
2023-03-03T08:51:18.343Z,27.58
2023-03-03T08:53:45.401Z,32.60
2023-03-03T08:56:14.634Z,24.45
2023-03-03T08:59:01.335Z,26.90
2023-03-03T09:01:29.605Z,27.58
2023-03-03T09:03:56.891Z,30.83
2023-03-03T09:06:23.842Z,29.73
2023-03-03T09:08:50.662Z,29.35
2023-03-03T09:11:27.858Z,33.42
2023-03-03T09:14:02.747Z,28.92
2023-03-03T09:16:37.146Z,33.83
2023-03-03T09:19:23.584Z,30.60
2023-03-03T09:21:57.694Z,32.17
2023-03-03T09:24:36.256Z,39.75
2023-03-03T09:27:03.268Z,30.88
2023-03-03T09:29:31.961Z,33.75
2023-03-03T09:32:02.310Z,37.40
2023-03-03T09:34:42.429Z,36.50
2023-03-03T09:37:40.516Z,36.10
2023-03-03T09:40:26.933Z,34.90
2023-03-03T09:43:05.441Z,30.08
2023-03-03T09:46:07.801Z,35.60
2023-03-03T09:48:48.812Z,32.95
2023-03-03T09:51:39.538Z,35.83
2023-03-03T09:54:13.714Z,31.85
2023-03-03T09:56:59.101Z,37.08
2023-03-03T09:59:50.480Z,38.47
2023-03-03T10:02:56.778Z,33.42
2023-03-03T10:05:32.918Z,36.03
2023-03-03T10:08:08.917Z,37.42
2023-03-03T10:11:00.211Z,42.95
2023-03-03T10:13:53.978Z,35.05
2023-03-03T10:16:41.627Z,38.30
2023-03-03T10:19:38.844Z,34.97
2023-03-03T10:22:31.814Z,34.85
2023-03-03T10:24:58.931Z,33.55
2023-03-03T10:27:53.598Z,34.05
2023-03-03T10:30:39.938Z,34.25
2023-03-03T10:33:27.222Z,37.80
2023-03-03T10:36:38.136Z,36.65
2023-03-03T10:39:21.047Z,37.00
2023-03-03T10:42:14.404Z,32.65
2023-03-03T10:45:20.032Z,36.28
2023-03-03T10:47:59.210Z,34.25
2023-03-03T10:50:30.249Z,33.78
2023-03-03T10:53:11.127Z,40.10
2023-03-03T10:56:00.909Z,33.67
2023-03-03T10:58:33.832Z,36.03
2023-03-03T11:01:04.161Z,39.95
2023-03-03T11:03:50.016Z,38.42
2023-03-03T11:06:22.437Z,36.42
2023-03-03T11:08:58.767Z,34.55
2023-03-03T11:11:29.879Z,34.63
2023-03-03T11:14:06.051Z,34.00
2023-03-03T11:17:01.419Z,41.00
2023-03-03T11:19:32.403Z,32.95
2023-03-03T11:22:14.876Z,31.50
2023-03-03T11:25:03.036Z,30.67
2023-03-03T11:27:38.836Z,32.00
2023-03-03T11:30:30.369Z,33.65
2023-03-03T11:33:01.151Z,28.55
2023-03-03T11:36:05.808Z,31.15
2023-03-03T11:38:58.335Z,33.50
2023-03-03T11:41:43.424Z,27.98
2023-03-03T11:44:14.166Z,31.90
2023-03-03T11:47:12.781Z,26.38
2023-03-03T11:49:51.100Z,30.13
2023-03-03T11:52:49.381Z,29.87
2023-03-03T11:55:22.591Z,35.40
2023-03-03T11:58:08.950Z,29.03
2023-03-03T12:01:03.995Z,28.97
2023-03-03T12:03:40.102Z,28.30
2023-03-03T12:06:14.188Z,31.10
2023-03-03T12:09:08.718Z,29.93
2023-03-03T12:11:59.967Z,23.75
2023-03-03T12:14:45.554Z,30.27
2023-03-03T12:17:40.408Z,25.60
2023-03-03T12:20:29.298Z,26.43
2023-03-03T12:23:13.022Z,26.03
2023-03-03T12:26:08.429Z,22.27
2023-03-03T12:28:38.613Z,27.23
2023-03-03T12:31:26.860Z,23.30
2023-03-03T12:34:15.294Z,26.10
2023-03-03T12:36:51.327Z,29.13
2023-03-03T12:39:48.527Z,25.23
2023-03-03T12:42:35.490Z,31.63
2023-03-03T12:45:13.155Z,29.07
2023-03-03T12:47:46.707Z,24.53
2023-03-03T12:50:28.677Z,27.27
2023-03-03T12:53:10.907Z,26.90
2023-03-03T12:55:53.863Z,30.27
2023-03-03T12:58:47.058Z,27.53
2023-03-03T13:01:34.109Z,24.80
2023-03-03T13:04:23.940Z,23.23
2023-03-03T13:07:04.225Z,28.93
2023-03-03T13:09:43.227Z,24.70
2023-03-03T13:12:40.690Z,21.73
2023-03-03T13:15:17.185Z,24.83
2023-03-03T13:17:49.464Z,23.67
2023-03-03T13:20:25.441Z,21.77
2023-03-03T13:22:57.483Z,25.30
2023-03-03T13:25:44.167Z,23.87
2023-03-03T13:28:34.985Z,26.10
2023-03-03T13:31:09.830Z,26.57
2023-03-03T13:33:37.343Z,27.50
2023-03-03T13:36:09.507Z,28.30
2023-03-03T13:38:51.691Z,26.33
2023-03-03T13:41:21.548Z,26.27
2023-03-03T13:44:21.270Z,28.97
2023-03-03T13:46:57.349Z,24.07
2023-03-03T13:49:42.539Z,24.07
2023-03-03T13:52:12.265Z,26.27
2023-03-03T13:54:58.149Z,23.07
2023-03-03T13:57:52.545Z,21.83
2023-03-03T14:00:39.184Z,20.37
2023-03-03T14:03:15.642Z,20.07
2023-03-03T14:05:50.223Z,26.33
2023-03-03T14:08:48.202Z,23.83
2023-03-03T14:11:26.646Z,19.13
2023-03-03T14:14:05.731Z,22.63
2023-03-03T14:16:45.256Z,18.87
2023-03-03T14:19:17.464Z,25.20
2023-03-03T14:21:52.496Z,25.87
2023-03-03T14:24:25.396Z,21.60
2023-03-03T14:27:00.231Z,21.60
2023-03-03T14:29:29.835Z,23.40
2023-03-03T14:32:01.700Z,22.67
2023-03-03T14:34:41.853Z,19.83
2023-03-03T14:37:25.285Z,19.87
2023-03-03T14:40:37.142Z,18.43
2023-03-03T14:43:20.728Z,23.03
2023-03-03T14:45:48.006Z,23.50
2023-03-03T14:48:28.065Z,23.43
2023-03-03T14:51:23.454Z,18.27
2023-03-03T14:53:50.568Z,22.33
2023-03-03T14:56:33.810Z,19.70
2023-03-03T14:59:19.764Z,20.83
2023-03-03T15:01:46.680Z,20.10
2023-03-03T15:04:16.311Z,20.80
2023-03-03T15:06:46.928Z,20.43
2023-03-03T15:09:37.480Z,16.97
2023-03-03T15:12:33.761Z,18.93
2023-03-03T15:15:08.901Z,15.27
2023-03-03T15:17:50.306Z,17.17
2023-03-03T15:20:25.296Z,17.03
2023-03-03T15:23:22.180Z,14.23
2023-03-03T15:26:07.172Z,16.20
2023-03-03T15:28:59.457Z,20.53
2023-03-03T15:31:52.333Z,12.33
2023-03-03T15:34:30.384Z,17.93
2023-03-03T15:37:22.728Z,17.03
2023-03-03T15:40:14.039Z,14.03
2023-03-03T15:43:02.677Z,13.40
2023-03-03T15:45:33.839Z,15.27
2023-03-03T15:48:36.112Z,15.00
2023-03-03T15:52:02.532Z,11.67
2023-03-03T15:54:46.021Z,12.87
2023-03-03T15:57:25.060Z,18.00
2023-03-03T15:59:59.130Z,14.87
2023-03-03T16:02:50.601Z,13.93
2023-03-03T16:05:25.705Z,12.80
2023-03-03T16:08:00.779Z,13.10
2023-03-03T16:10:39.672Z,14.63
2023-03-03T16:13:35.615Z,11.47
2023-03-03T16:16:13.890Z,13.47
2023-03-03T16:18:49.696Z,11.53
2023-03-03T16:21:22.279Z,12.10
2023-03-03T16:24:32.293Z,13.27
2023-03-03T16:27:28.256Z,9.70
2023-03-03T16:30:27.628Z,9.17
2023-03-03T16:33:16.196Z,12.37
2023-03-03T16:35:50.502Z,11.33
2023-03-03T16:38:22.191Z,10.60
2023-03-03T16:40:57.108Z,13.47
2023-03-03T16:43:26.829Z,11.40
2023-03-03T16:45:58.935Z,10.13
2023-03-03T16:48:46.219Z,11.93
2023-03-03T16:51:21.089Z,13.00
2023-03-03T16:53:51.040Z,12.57
2023-03-03T16:56:25.289Z,9.60
2023-03-03T16:58:58.091Z,10.07
2023-03-03T17:01:40.161Z,8.53
2023-03-03T17:04:32.037Z,8.93
2023-03-03T17:07:12.932Z,10.77
2023-03-03T17:09:45.696Z,8.90
2023-03-03T17:12:21.119Z,9.47
2023-03-03T17:14:58.235Z,13.03
2023-03-03T17:17:57.145Z,8.57
2023-03-03T17:20:36.666Z,10.57
2023-03-03T17:23:20.011Z,10.23
2023-03-03T17:26:11.771Z,11.40
2023-03-03T17:29:23.146Z,14.87
2023-03-03T17:32:25.077Z,9.33
2023-03-03T17:35:15.324Z,11.20
2023-03-03T17:37:48.613Z,9.60
2023-03-03T17:40:27.984Z,10.90
2023-03-03T17:43:04.172Z,11.73
2023-03-03T17:45:35.688Z,12.00
2023-03-03T17:48:29.037Z,12.97
2023-03-03T17:51:36.964Z,10.67
2023-03-03T17:54:12.950Z,11.03
2023-03-03T17:56:58.558Z,9.97
2023-03-03T17:59:52.562Z,12.80
2023-03-03T18:02:38.801Z,14.53
2023-03-03T18:05:42.928Z,14.37
2023-03-03T18:08:37.804Z,21.83
2023-03-03T18:11:10.833Z,24.67
2023-03-03T18:14:14.353Z,21.60
2023-03-03T18:17:02.935Z,20.80
2023-03-03T18:20:03.897Z,13.70
2023-03-03T18:22:53.172Z,9.47
2023-03-03T18:25:23.329Z,13.13
2023-03-03T18:28:02.092Z,11.43
2023-03-03T18:30:55.473Z,13.83
2023-03-03T18:33:43.019Z,18.37
2023-03-03T18:36:32.886Z,11.67
2023-03-03T18:39:01.616Z,13.17
2023-03-03T18:41:30.412Z,13.33
2023-03-03T18:44:29.835Z,18.30
2023-03-03T18:46:58.890Z,11.67
2023-03-03T18:49:50.111Z,13.00
2023-03-03T18:52:23.066Z,14.87
2023-03-03T18:55:13.116Z,14.60
2023-03-03T18:57:40.020Z,15.53
2023-03-03T19:00:33.921Z,16.07
2023-03-03T19:03:01.306Z,14.07
2023-03-03T19:05:35.267Z,18.77
2023-03-03T19:08:23.454Z,15.53
2023-03-03T19:11:03.403Z,14.20
2023-03-03T19:13:33.184Z,14.97
2023-03-03T19:16:26.114Z,11.70
2023-03-03T19:18:52.973Z,16.93
2023-03-03T19:21:28.352Z,11.77
2023-03-03T19:24:03.609Z,10.03
2023-03-03T19:26:58.055Z,11.17
2023-03-03T19:29:46.845Z,9.23
2023-03-03T19:32:38.380Z,16.10
2023-03-03T19:35:33.140Z,11.10
2023-03-03T19:38:20.374Z,10.73
2023-03-03T19:41:12.500Z,10.37
2023-03-03T19:43:54.723Z,14.13
2023-03-03T19:46:46.263Z,16.50
2023-03-03T19:49:41.116Z,9.83
2023-03-03T19:52:14.846Z,11.00
2023-03-03T19:54:46.386Z,14.10
2023-03-03T19:57:34.786Z,12.63
2023-03-03T20:00:26.085Z,12.53
2023-03-03T20:03:02.868Z,10.90
2023-03-03T20:05:35.056Z,14.30
2023-03-03T20:08:29.977Z,10.40
2023-03-03T20:11:05.713Z,18.67
2023-03-03T20:13:50.846Z,10.33
2023-03-03T20:16:37.744Z,10.03
2023-03-03T20:19:07.611Z,9.27
2023-03-03T20:21:42.716Z,10.93
2023-03-03T20:24:31.110Z,9.87
2023-03-03T20:27:05.485Z,10.07
2023-03-03T20:29:44.692Z,8.37
2023-03-03T20:32:36.580Z,8.30
2023-03-03T20:35:16.507Z,8.60
2023-03-03T20:37:53.998Z,7.27
2023-03-03T20:40:54.438Z,9.03
2023-03-03T20:43:26.320Z,7.93
2023-03-03T20:45:59.186Z,7.67
2023-03-03T20:48:48.150Z,7.80
2023-03-03T20:51:25.257Z,8.23
2023-03-03T20:54:07.311Z,7.13
2023-03-03T20:57:15.887Z,6.80
2023-03-03T21:00:03.117Z,12.37
2023-03-03T21:02:35.946Z,10.53
2023-03-03T21:05:16.067Z,6.60
2023-03-03T21:08:07.154Z,8.07
2023-03-03T21:10:36.484Z,7.33
2023-03-03T21:13:40.982Z,10.83
2023-03-03T21:16:20.264Z,10.07
2023-03-03T21:19:04.492Z,11.47
2023-03-03T21:21:37.201Z,13.73
2023-03-03T21:24:04.519Z,6.27
2023-03-03T21:26:50.278Z,10.37
2023-03-03T21:29:34.591Z,12.37
2023-03-03T21:32:07.848Z,11.03
2023-03-03T21:34:39.875Z,7.67
2023-03-03T21:37:08.200Z,6.03
2023-03-03T21:39:46.974Z,5.90
2023-03-03T21:42:16.271Z,7.23
2023-03-03T21:44:46.640Z,6.70
2023-03-03T21:47:16.268Z,8.37
2023-03-03T21:49:44.203Z,5.77
2023-03-03T21:52:12.852Z,7.60
2023-03-03T21:54:40.682Z,8.83
2023-03-03T21:57:07.508Z,6.03
2023-03-03T21:59:34.268Z,12.03
2023-03-03T22:02:01.462Z,7.53
2023-03-03T22:04:28.661Z,8.90
2023-03-03T22:06:56.151Z,7.97
2023-03-03T22:09:23.733Z,12.93
2023-03-03T22:11:50.924Z,9.47
2023-03-03T22:14:18.254Z,9.77
2023-03-03T22:16:45.647Z,11.47
2023-03-03T22:19:12.501Z,9.43
2023-03-03T22:21:39.932Z,9.40
2023-03-03T22:24:07.447Z,7.40
2023-03-03T22:26:35.051Z,7.50
2023-03-03T22:29:02.324Z,10.40
2023-03-03T22:31:29.151Z,7.13
2023-03-03T22:33:56.106Z,11.03
2023-03-03T22:36:22.987Z,7.90
2023-03-03T22:38:50.020Z,7.67
2023-03-03T22:41:17.455Z,10.07
2023-03-03T22:43:45.007Z,8.10
2023-03-03T22:46:12.067Z,6.83
2023-03-03T22:48:39.631Z,8.93
2023-03-03T22:51:06.829Z,11.97
2023-03-03T22:53:34.088Z,7.23
2023-03-03T22:56:01.462Z,13.00
2023-03-03T22:58:29.484Z,9.47
2023-03-03T23:00:56.339Z,9.90
2023-03-03T23:03:23.725Z,8.13
2023-03-03T23:05:51.941Z,9.43
2023-03-03T23:08:26.497Z,8.73
2023-03-03T23:10:56.231Z,12.40
2023-03-03T23:13:25.281Z,9.27
2023-03-03T23:15:52.267Z,10.60
2023-03-03T23:18:19.082Z,11.40
2023-03-03T23:20:51.088Z,11.80
2023-03-03T23:23:20.663Z,12.70
2023-03-03T23:25:47.678Z,9.40
2023-03-03T23:28:15.684Z,12.60
2023-03-03T23:30:43.012Z,17.67
2023-03-03T23:33:09.834Z,17.40
2023-03-03T23:35:44.404Z,16.37
2023-03-03T23:38:15.459Z,19.93
2023-03-03T23:40:44.777Z,16.87
2023-03-03T23:43:11.738Z,21.53
2023-03-03T23:45:38.625Z,13.43
2023-03-03T23:48:06.054Z,16.83
2023-03-03T23:50:34.158Z,13.40
2023-03-03T23:53:00.788Z,15.47
2023-03-03T23:55:27.601Z,16.27
2023-03-03T23:57:54.421Z,19.70
